Cebollita Spring, Valles Caldera, New Mexico Weather observations

Data are for 10 minute period ending at time listed.
 Day   Time   Solar   Ave.   Ave.  Ave.  Vector  Max.   Baro.   Total    
  of    of     Rad.   Air    Rel.  Wind   Wind   Wind  Press.  Precip.   
Year   Day            Temp.  Hum.  Speed  Dir.   Gust                    
2017   (MST)  Kw/m2    F      %     mph   deg.    mph    mb.     in.     
-------------------------------------------------------------------------
  82   22:30   0.00   26.2   100   10.6   267    22.1   99999.0    0.00 
  82   22:40   0.00   26.2   100   10.3   270    18.8   99999.0    0.00 
  82   22:50   0.00   26.2   100   11.4   261    21.5   99999.0    0.00 
  82   23:00   0.00   26.3   100   11.1   267    20.9   99999.0    0.00 
  82   23:10   0.00   26.3   100    9.9   269    18.5   99999.0    0.00 
  82   23:20   0.00   26.5   100    9.9   264    24.5   99999.0    0.00 
  82   23:30   0.00   26.7   100    7.7   273    16.1   99999.0    0.00 
  82   23:40   0.00   26.8   100    8.5   257    17.9   99999.0    0.00 
  82   23:50   0.00   26.9   100    8.7   259    23.9   99999.0    0.00 
  83    0:00   0.00   27.0   100   10.7   264    26.2   99999.0    0.00 
  83    0:10   0.00   27.0   100   11.4   266    20.3   99999.0    0.00 
  83    0:20   0.00   27.1   100   10.9   270    23.9   99999.0    0.00 
  83    0:30   0.00   27.2   100   11.9   270    25.0   99999.0    0.01 
  83    0:40   0.00   27.2   100   12.9   266    28.0   99999.0    0.00 
  83    0:50   0.00   27.4   100   13.4   264    26.2   99999.0    0.00 
  83    1:00   0.00   27.5   100   10.9   262    21.5   99999.0    0.00 
  83    1:10   0.00   27.6   100    9.0   268    17.3   99999.0    0.00 
  83    1:20   0.00   27.7   100    9.8   274    24.5   99999.0    0.01 
  83    1:30   0.00   27.8   100   10.4   273    19.1   99999.0    0.01 
  83    1:40   0.00   27.8   100   11.9   260    26.2   99999.0    0.02 
  83    1:50   0.00   27.8   100    8.0   266    18.5   99999.0    0.12 
  83    2:00   0.00   28.0   100    8.2   286    19.1   99999.0    0.07 
  83    2:10   0.00   28.0   100   11.4   286    23.3   99999.0    0.00 
  83    2:20   0.00   28.0   100   12.8   279    26.2   99999.0    0.00 
  83    2:30   0.00   28.0   100   10.9   287    23.9   99999.0    0.00 
  83    2:40   0.00   27.9   100   11.0   284    20.9   99999.0    0.00 
  83    2:50   0.00   27.9   100   10.0   293    20.3   99999.0    0.00 
  83    3:00   0.00   28.0   100   12.1   295    26.8   99999.0    0.00 
  83    3:10   0.00   28.1   100   12.5   285    25.0   99999.0    0.00 
  83    3:20   0.00   28.1   100   13.2   288    26.8   99999.0    0.00 
  83    3:30   0.00   28.1   100   11.7   293    29.8   99999.0    0.00 
  83    3:40   0.00   28.1   100   12.9   294    31.6   99999.0    0.02 
  83    3:50   0.00   28.2   100   12.8   298    29.8   99999.0    0.01 
  83    4:00   0.00   28.1   100   12.6   297    26.8   99999.0    0.02 
  83    4:10   0.00   28.1   100   13.4   288    31.0   99999.0    0.01 
  83    4:20   0.00   28.1   100   12.0   297    31.0   99999.0    0.02 
  83    4:30   0.00   28.1   100   14.8   296    32.2   99999.0    0.00 
  83    4:40   0.00   28.1   100   13.7   294    29.2   99999.0    0.01 
  83    4:50   0.00   28.2   100   10.9   304    24.5   99999.0    0.00 
  83    5:00   0.00   28.3   100   10.5   301    23.3   99999.0    0.01 
  83    5:10   0.00   28.3   100   15.8   299    32.2   99999.0    0.00 
  83    5:20   0.00   28.3   100   13.7   298    33.4   99999.0    0.00 
  83    5:30   0.00   28.3   100   14.7   299    33.4   99999.0    0.00 
  83    5:40   0.00   28.3   100   14.6   306    37.6   99999.0    0.00 
  83    5:50   0.00   28.3   100   14.8   293    26.2   99999.0    0.00 
  83    6:00   0.00   28.3   100   13.6   297    35.8   99999.0    0.01 
  83    6:10   0.00   28.3   100   12.7   304    33.4   99999.0    0.00 
  83    6:20   0.00   28.3   100   13.0   301    32.2   99999.0    0.00 
  83    6:30   0.00   28.3   100   12.6   298    28.0   99999.0    0.00 
  83    6:40   0.01   28.4   100   10.6   300    19.7   99999.0    0.00 
  83    6:50   0.01   28.4   100   10.5   294    22.1   99999.0    0.00 
  83    7:00   0.02   28.5   100   11.8   299    30.4   99999.0    0.01 
  83    7:10   0.02   28.6   100    9.8   298    22.1   99999.0    0.00 
  83    7:20   0.02   28.7   100   12.2   305    31.0   99999.0    0.00 
  83    7:30   0.03   28.7   100   13.2   313    26.8   99999.0    0.00 
  83    7:40   0.04   28.9    99   10.9   309    23.9   99999.0    0.00 
  83    7:50   0.03   29.1    99    8.5   329    18.5   99999.0    0.00 
  83    8:00   0.04   29.2    98    8.9   317    17.9   99999.0    0.00 
  83    8:10   0.08   29.6    97   10.4   320    23.3   99999.0    0.00 
  83    8:20   0.18   30.3    93    8.4   317    22.1   99999.0    0.00 
  83    8:30   0.37   31.9    87    6.8   323    16.1   99999.0    0.00 
  83    8:40   0.40   33.2    81    7.7   304    14.9   99999.0    0.01 
  83    8:50   0.29   34.5    77    5.5   299    10.8   99999.0    0.00 
  83    9:00   0.44   34.6    75    7.6   274    14.3   99999.0    0.01 
  83    9:10   0.45   36.0    70    8.0   290    15.5   99999.0    0.00 
  83    9:20   0.50   36.2    69    7.1   286    17.3   99999.0    0.01 
  83    9:30   0.51   37.4    66    7.2   288    13.7   99999.0    0.00 
  83    9:40   0.53   36.6    67   10.0   278    17.3   99999.0    0.01 
  83    9:50   0.52   36.4    68   11.3   281    20.9   99999.0    0.00 
  83   10:00   0.61   37.2    67   10.7   292    20.9   99999.0    0.01 
  83   10:10   0.63   37.6    65   11.6   295    22.1   99999.0    0.00 
  83   10:20   0.53   37.7    66   10.4   296    20.3   99999.0    0.01 
  83   10:30   0.58   37.5    67    9.4   294    16.7   99999.0    0.00 
  83   10:40   0.66   38.7    64    9.7   304    20.0   99999.0    0.01 
  83   10:50   0.65   39.4    63    8.8   291    19.7   99999.0    0.00 
  83   11:00   0.67   39.9    62    8.9   286    20.3   99999.0    0.01 
  83   11:10   0.68   39.9    62   10.2   296    21.5   99999.0    0.00 
  83   11:20   0.69   40.9    61    8.9   292    21.5   99999.0    0.01 
  83   11:30   0.69   40.7    60   11.6   284    23.3   99999.0    0.00 
  83   11:40   0.70   41.0    60    9.7   282    20.9   99999.0    0.01 
  83   11:50   0.70   41.2    59   11.1   294    22.1   99999.0    0.00 
  83   12:00   0.71   41.8    58   11.2   303    20.9   99999.0    0.01 
  83   12:10   0.71   42.3    58   11.8   297    22.1   99999.0    0.00 
  83   12:20   0.71   43.2    57    9.6   302    21.5   99999.0    0.00 
  83   12:30   0.71   44.1    56    9.4   299    19.1   99999.0    0.01 
  83   12:40   0.66   44.1    55    9.9   301    22.7   99999.0    0.00 
  83   12:50   0.71   44.8    55   10.0   316    22.1   99999.0    0.00 
  83   13:00   0.70   45.4    54    7.6   306    17.3   99999.0    0.01 
  83   13:10   0.69   45.7    54    9.0   304    17.3   99999.0    0.00 
  83   13:20   0.68   45.9    54    8.3   296    17.3   99999.0    0.00 
  83   13:30   0.66   45.7    52   10.8   308    19.1   99999.0    0.01 
  83   13:40   0.66   45.6    53   10.8   278    21.5   99999.0    0.00 
  83   13:50   0.64   46.7    51    8.7   307    17.3   99999.0    0.00 
  83   14:00   0.62   47.3    50    9.4   314    17.3   99999.0    0.00 
  83   14:10   0.61   47.2    49    9.8   301    17.9   99999.0    0.00 
  83   14:20   0.59   47.3    48    9.2   291    17.9   99999.0    0.00 
  83   14:30   0.59   48.1    47    8.7   289    17.3   99999.0    0.00 
  83   14:40   0.56   48.3    46    7.6   291    18.5   99999.0    0.00 
  83   14:50   0.54   48.5    45    9.5   308    18.5   99999.0    0.01 
  83   15:00   0.52   48.8    44    8.9   296    17.9   99999.0    0.00 
  83   15:10   0.49   48.8    42    7.8   295    13.7   99999.0    0.00 
  83   15:20   0.45   49.1    42    8.1   304    17.3   99999.0    0.00 
  83   15:30   0.44   49.0    41    8.9   286    16.7   99999.0    0.00 
  83   15:40   0.42   49.2    41    7.6   304    14.9   99999.0    0.00 
  83   15:50   0.40   49.9    40    6.5   292    14.3   99999.0    0.00 
  83   16:00   0.37   49.7    39    8.7   293    17.9   99999.0    0.00 
  83   16:10   0.34   50.1    40    6.0   287    16.7   99999.0    0.00 
  83   16:20   0.31   49.9    39    8.3   298    19.7   99999.0    0.00 
  83   16:30   0.28   49.7    39    6.6   312    17.3   99999.0    0.00 
  83   16:40   0.26   49.4    40    6.7   304    12.5   99999.0    0.00 
  83   16:50   0.23   49.7    39    5.5   303    11.9   99999.0    0.00 
  83   17:00   0.20   49.5    37    6.8   291    16.7   99999.0    0.00 
  83   17:10   0.17   49.2    36    5.8   295    16.7   99999.0    0.01 
  83   17:20   0.15   48.8    37    5.4   286     9.0   99999.0    0.00 
  83   17:30   0.12   48.9    38    4.7   290    10.8   99999.0    0.00 
  83   17:40   0.10   48.2    39    5.3   297    10.8   99999.0    0.00 
  83   17:50   0.08   47.4    40    2.9   279     7.2   99999.0    0.00 
  83   18:00   0.05   46.7    44    3.0   291     8.4   99999.0    0.00 
  83   18:10   0.03   44.8    45    3.5   287     6.6   99999.0    0.00 
  83   18:20   0.01   43.1    49    2.9   283     6.6   99999.0    0.00 
  83   18:30   0.00   41.3    52    3.6   290     7.8   99999.0    0.00 
  83   18:40   0.00   40.0    52    3.9   285     6.9   99999.0    0.00 
  83   18:50   0.00   39.7    51    4.3   295     9.0   99999.0    0.00 
  83   19:00   0.00   39.6    52    4.0   306     7.8   99999.0    0.00 
  83   19:10   0.00   39.4    50    4.3   297     7.8   99999.0    0.00 
  83   19:20   0.00   39.4    50    4.5   305     7.8   99999.0    0.00 
  83   19:30   0.00   38.0    55    4.4   276     9.6   99999.0    0.00 
  83   19:40   0.00   38.1    53    4.9   280     7.8   99999.0    0.00 
  83   19:50   0.00   38.7    50    3.5   283     6.0   99999.0    0.00 
  83   20:00   0.00   38.3    51    4.5   283    10.2   99999.0    0.00 
  83   20:10   0.00   37.4    53    4.0   282     8.4   99999.0    0.00 
  83   20:20   0.00   36.4    56    4.2   273     7.8   99999.0    0.00 
  83   20:30   0.00   36.3    56    4.6   288     9.6   99999.0    0.00 
  83   20:40   0.00   36.9    55    4.7   299     7.8   99999.0    0.00 
  83   20:50   0.00   37.4    53    4.3   319     7.8   99999.0    0.00 
  83   21:00   0.00   37.1    55    5.6   329    10.8   99999.0    0.00 
  83   21:10   0.00   38.1    52    5.2   321    10.8   99999.0    0.00 
  83   21:20   0.00   36.2    56    4.5   311     8.4   99999.0    0.00 
  83   21:30   0.00   35.9    57    4.6   331     9.0   99999.0    0.00 
  83   21:40   0.00   34.9    61    4.5   330     9.6   99999.0    0.00 
  83   21:50   0.00   35.3    59    5.0   339     9.0   99999.0    0.00 
  83   22:00   0.00   34.2    63    4.6   318     7.2   99999.0    0.00 
  83   22:10   0.00   33.9    62    5.3   333    10.2   99999.0    0.00 
  83   22:20   0.00   34.6    61    5.0   329     8.4   99999.0    0.00 

Return to Cebollita Spring, Valles Caldera graphs page.


Western Regional Climate Center,wrcc@dri.edu